地図

経路データ

SID SEASON NUMBER BASIN SUBBASIN NAME ISO_TIME NATURE LAT LON WMO_WIND WMO_PRES WMO_AGENCY TRACK_TYPE DIST2LAND LANDFALL IFLAG USA_AGENCY USA_ATCF_ID USA_LAT USA_LON USA_RECORD USA_STATUS USA_WIND USA_PRES USA_SSHS USA_R34_NE USA_R34_SE USA_R34_SW USA_R34_NW USA_R50_NE USA_R50_SE USA_R50_SW USA_R50_NW USA_R64_NE USA_R64_SE USA_R64_SW USA_R64_NW USA_POCI USA_ROCI USA_RMW USA_EYE TOKYO_LAT TOKYO_LON TOKYO_GRADE TOKYO_WIND TOKYO_PRES TOKYO_R50_DIR TOKYO_R50_LONG TOKYO_R50_SHORT TOKYO_R30_DIR TOKYO_R30_LONG TOKYO_R30_SHORT TOKYO_LAND CMA_LAT CMA_LON CMA_CAT CMA_WIND CMA_PRES HKO_LAT HKO_LON HKO_CAT HKO_WIND HKO_PRES NEWDELHI_LAT NEWDELHI_LON NEWDELHI_GRADE NEWDELHI_WIND NEWDELHI_PRES NEWDELHI_CI NEWDELHI_DP NEWDELHI_POCI REUNION_LAT REUNION_LON REUNION_TYPE REUNION_WIND REUNION_PRES REUNION_TNUM REUNION_CI REUNION_RMW REUNION_R34_NE REUNION_R34_SE REUNION_R34_SW REUNION_R34_NW REUNION_R50_NE REUNION_R50_SE REUNION_R50_SW REUNION_R50_NW REUNION_R64_NE REUNION_R64_SE REUNION_R64_SW REUNION_R64_NW BOM_LAT BOM_LON BOM_TYPE BOM_WIND BOM_PRES BOM_TNUM BOM_CI BOM_RMW BOM_R34_NE BOM_R34_SE BOM_R34_SW BOM_R34_NW BOM_R50_NE BOM_R50_SE BOM_R50_SW BOM_R50_NW BOM_R64_NE BOM_R64_SE BOM_R64_SW BOM_R64_NW BOM_ROCI BOM_POCI BOM_EYE BOM_POS_METHOD BOM_PRES_METHOD NADI_LAT NADI_LON NADI_CAT NADI_WIND NADI_PRES WELLINGTON_LAT WELLINGTON_LON WELLINGTON_WIND WELLINGTON_PRES DS824_LAT DS824_LON DS824_STAGE DS824_WIND DS824_PRES TD9636_LAT TD9636_LON TD9636_STAGE TD9636_WIND TD9636_PRES TD9635_LAT TD9635_LON TD9635_WIND TD9635_PRES TD9635_ROCI NEUMANN_LAT NEUMANN_LON NEUMANN_CLASS NEUMANN_WIND NEUMANN_PRES MLC_LAT MLC_LON MLC_CLASS MLC_WIND MLC_PRES USA_GUST BOM_GUST BOM_GUST_PER REUNION_GUST REUNION_GUST_PER USA_SEAHGT USA_SEARAD_NE USA_SEARAD_SE USA_SEARAD_SW USA_SEARAD_NW STORM_SPEED STORM_DIR
1912052S13056 1912 9 SI MM NOT_NAMED 1912-02-20 12:00:00 NR -12.9000 56.0000 main 646 635 __________O___ -1 -12.9000 56.0000 4 2 234
1912052S13056 1912 9 SI MM NOT_NAMED 1912-02-20 15:00:00 NR -12.9516 55.9328 main 632 632 __________P___ -1 -12.9516 55.9328 4 2 229
1912052S13056 1912 9 SI MM NOT_NAMED 1912-02-20 18:00:00 NR -13.0125 55.8625 main 632 618 __________P___ -1 -13.0125 55.8625 4 2 226
1912052S13056 1912 9 SI MM NOT_NAMED 1912-02-20 21:00:00 NR -13.0922 55.7859 main 618 603 __________P___ -1 -13.0922 55.7859 4 2 220
1912052S13056 1912 9 SI MM NOT_NAMED 1912-02-21 00:00:00 TS -13.2000 55.7000 main 603 589 _________OO___ -1 -13.2000 55.7000 TC 65 -13.2000 55.7000 4 3 216
1912052S13056 1912 9 SI MM NOT_NAMED 1912-02-21 03:00:00 TS -13.3415 55.6029 main 589 571 _________PP___ -1 -13.3400 55.6025 TC 65 -13.3422 55.6032 4 4 212
1912052S13056 1912 9 SI MM NOT_NAMED 1912-02-21 06:00:00 TS -13.5072 55.5000 main 571 553 _________OP___ -1 -13.5000 55.5000 TC 65 -13.5125 55.5000 4 4 210
1912052S13056 1912 9 SI MM NOT_NAMED 1912-02-21 09:00:00 TS -13.6970 55.3947 main 553 536 _________PP___ -1 -13.6925 55.3925 TC 65 -13.7016 55.3969 4 4 206
1912052S13056 1912 9 SI MM NOT_NAMED 1912-02-21 12:00:00 TS -13.9000 55.3000 main 536 520 _________OO___ -1 -13.9000 55.3000 TC 65 -13.9000 55.3000 4 4 201
1912052S13056 1912 9 SI MM NOT_NAMED 1912-02-21 15:00:00 TS -14.0943 55.2399 main 520 515 _________PP___ -1 -14.1000 55.2500 TC 65 -14.0887 55.2298 4 4 196
1912052S13056 1912 9 SI MM NOT_NAMED 1912-02-21 18:00:00 TS -14.2925 55.1824 main 515 500 _________OP___ -1 -14.3000 55.2000 TC 65 -14.2849 55.1648 4 4 198
1912052S13056 1912 9 SI MM NOT_NAMED 1912-02-21 21:00:00 TS -14.4906 55.1036 main 500 486 _________PP___ -1 -14.4925 55.1150 TC 65 -14.4887 55.0923 4 4 203
1912052S13056 1912 9 SI MM NOT_NAMED 1912-02-22 00:00:00 TS -14.7000 55.0000 main 486 473 _________OO___ -1 -14.7000 55.0000 TC 65 -14.7000 55.0000 4 5 208
1912052S13056 1912 9 SI MM NOT_NAMED 1912-02-22 03:00:00 TS -14.9380 54.8605 main 473 450 _________PP___ -1 -14.9500 54.8575 TC 65 -14.9260 54.8636 4 6 211
1912052S13056 1912 9 SI MM NOT_NAMED 1912-02-22 06:00:00 TS -15.1788 54.7038 main 450 439 _________OP___ -1 -15.2000 54.7000 TC 65 -15.1576 54.7077 4 6 213
1912052S13056 1912 9 SI MM NOT_NAMED 1912-02-22 09:00:00 TS -15.4002 54.5452 main 428 418 _________PP___ -1 -15.4150 54.5425 TC 65 -15.3854 54.5479 4 5 215
1912052S13056 1912 9 SI MM NOT_NAMED 1912-02-22 12:00:00 TS -15.6000 54.4000 main 418 408 _________OO___ -1 -15.6000 54.4000 TC 65 -15.6000 54.4000 4 4 214
1912052S13056 1912 9 SI MM NOT_NAMED 1912-02-22 15:00:00 TS -15.7697 54.2869 main 409 398 _________PP___ -1 -15.7500 54.2924 TC 65 -15.7893 54.2814 4 4 211
1912052S13056 1912 9 SI MM NOT_NAMED 1912-02-22 18:00:00 TS -15.9325 54.1887 main 400 391 _________OP___ -1 -15.9000 54.2000 TC 65 -15.9649 54.1773 4 4 208
1912052S13056 1912 9 SI MM NOT_NAMED 1912-02-22 21:00:00 TS -16.1165 54.0923 main 393 385 _________PP___ -1 -16.1000 54.1000 TC 65 -16.1331 54.0846 4 4 206
1912052S13056 1912 9 SI MM NOT_NAMED 1912-02-23 00:00:00 TS -16.3000 54.0000 main 387 380 _________OO___ -1 -16.3000 54.0000 TC 65 -16.3000 54.0000 4 4 207
1912052S13056 1912 9 SI MM NOT_NAMED 1912-02-23 03:00:00 TS -16.4645 53.9071 main 383 377 _________PP___ -1 -16.4500 53.8925 TC 65 -16.4790 53.9218 4 4 207
1912052S13056 1912 9 SI MM NOT_NAMED 1912-02-23 06:00:00 TS -16.6287 53.8249 main 377 377 _________OP___ -1 -16.6000 53.8000 TC 65 -16.6575 53.8499 4 4 201
1912052S13056 1912 9 SI MM NOT_NAMED 1912-02-23 09:00:00 TS -16.8161 53.7640 main 385 380 _________PP___ -1 -16.8000 53.7500 TC 65 -16.8322 53.7780 4 4 198
1912052S13056 1912 9 SI MM NOT_NAMED 1912-02-23 12:00:00 TS -17.0000 53.7000 main 385 380 _________OO___ -1 -17.0000 53.7000 TC 65 -17.0000 53.7000 4 4 205
1912052S13056 1912 9 SI MM NOT_NAMED 1912-02-23 15:00:00 TS -17.1553 53.6033 main 385 375 _________PP___ -1 -17.1575 53.6075 TC 65 -17.1531 53.5991 4 4 213
1912052S13056 1912 9 SI MM NOT_NAMED 1912-02-23 18:00:00 TS -17.3000 53.4963 main 380 375 _________OP___ -1 -17.3000 53.5000 TC 65 -17.3000 53.4925 4 4 215
1912052S13056 1912 9 SI MM NOT_NAMED 1912-02-23 21:00:00 TS -17.4485 53.3911 main 375 370 _________PP___ -1 -17.4500 53.3925 TC 65 -17.4469 53.3897 4 4 211
1912052S13056 1912 9 SI MM NOT_NAMED 1912-02-24 00:00:00 TS -17.6000 53.3000 main 375 371 _________OO___ -1 -17.6000 53.3000 TC 65 -17.6000 53.3000 4 3 206
1912052S13056 1912 9 SI MM NOT_NAMED 1912-02-24 03:00:00 TS -17.7511 53.2370 main 377 377 _________PP___ -1 -17.7425 53.2425 TC 65 -17.7597 53.2315 4 3 199
1912052S13056 1912 9 SI MM NOT_NAMED 1912-02-24 06:00:00 TS -17.9137 53.1887 main 381 379 _________OP___ -1 -17.9000 53.2000 TC 65 -17.9275 53.1774 4 4 195
1912052S13056 1912 9 SI MM NOT_NAMED 1912-02-24 09:00:00 TS -18.0995 53.1423 main 379 379 _________PP___ -1 -18.0925 53.1500 TC 65 -18.1065 53.1346 4 4 193
1912052S13056 1912 9 SI MM NOT_NAMED 1912-02-24 12:00:00 TS -18.3000 53.1000 main 379 362 _________OO___ -1 -18.3000 53.1000 TC 65 -18.3000 53.1000 4 4 192
1912052S13056 1912 9 SI MM NOT_NAMED 1912-02-24 15:00:00 TS -18.4995 53.0471 main 368 352 _________PP___ -1 -18.4925 53.0425 TC 65 -18.5066 53.0517 4 4 192
1912052S13056 1912 9 SI MM NOT_NAMED 1912-02-24 18:00:00 TS -18.7137 53.0063 main 352 336 _________OP___ -1 -18.7000 53.0000 TC 65 -18.7275 53.0127 4 5 187
1912052S13056 1912 9 SI MM NOT_NAMED 1912-02-24 21:00:00 TS -18.9511 52.9887 main 328 312 _________PP___ -1 -18.9425 52.9850 TC 65 -18.9597 52.9924 4 5 0
1912052S13056 1912 9 SI MM NOT_NAMED 1912-02-25 00:00:00 TS -19.2000 53.0000 main 312 298 _________OO___ -1 -19.2000 53.0000 TC 65 -19.2000 53.0000 4 5 176
1912052S13056 1912 9 SI MM NOT_NAMED 1912-02-25 03:00:00 TS -19.4565 53.0345 main 290 269 _________PP___ -1 -19.4500 53.0350 TC 65 -19.4631 53.0339 4 5 170
1912052S13056 1912 9 SI MM NOT_NAMED 1912-02-25 06:00:00 TS -19.7150 53.0987 main 269 241 _________OP___ -1 -19.7000 53.1000 TC 65 -19.7299 53.0973 4 5 164
1912052S13056 1912 9 SI MM NOT_NAMED 1912-02-25 09:00:00 TS -19.9734 53.1860 main 241 221 _________PP___ -1 -19.9650 53.1850 TC 65 -19.9818 53.1871 4 5 159
1912052S13056 1912 9 SI MM NOT_NAMED 1912-02-25 12:00:00 TS -20.2000 53.3000 main 221 202 _________OO___ -1 -20.2000 53.3000 TC 65 -20.2000 53.3000 4 5 149
1912052S13056 1912 9 SI MM NOT_NAMED 1912-02-25 15:00:00 TS -20.3647 53.4376 main 202 179 _________PP___ -1 -20.3725 53.4425 TC 65 -20.3569 53.4326 4 4 137
1912052S13056 1912 9 SI MM NOT_NAMED 1912-02-25 18:00:00 TS -20.4900 53.5926 main 179 165 _________OP___ -1 -20.5000 53.6000 TC 65 -20.4801 53.5851 4 4 128
1912052S13056 1912 9 SI MM NOT_NAMED 1912-02-25 21:00:00 TS -20.5941 53.7513 main 155 142 _________PP___ -1 -20.6000 53.7575 TC 65 -20.5882 53.7451 4 4 126
1912052S13056 1912 9 SI MM NOT_NAMED 1912-02-26 00:00:00 TS -20.7000 53.9000 main 142 129 _________OO___ -1 -20.7000 53.9000 TC 65 -20.7000 53.9000 4 4 136
1912052S13056 1912 9 SI MM NOT_NAMED 1912-02-26 03:00:00 TS -20.8507 54.0121 main 126 114 _________PP___ -1 -20.8425 54.0000 TC 65 -20.8590 54.0241 4 4 146
1912052S13056 1912 9 SI MM NOT_NAMED 1912-02-26 06:00:00 TS -21.0112 54.1212 main 114 103 _________OP___ -1 -21.0000 54.1000 TC 65 -21.0224 54.1425 4 4 144
1912052S13056 1912 9 SI MM NOT_NAMED 1912-02-26 09:00:00 TS -21.1660 54.2536 main 93 85 _________PP___ -1 -21.1575 54.2425 TC 65 -21.1746 54.2647 4 4 138
1912052S13056 1912 9 SI MM NOT_NAMED 1912-02-26 12:00:00 TS -21.3000 54.4000 main 85 75 _________OO___ -1 -21.3000 54.4000 TC 65 -21.3000 54.4000 4 4 131
1912052S13056 1912 9 SI MM NOT_NAMED 1912-02-26 15:00:00 TS -21.4049 54.5489 main 79 66 _________PP___ -1 -21.4225 54.5425 TC 65 -21.3873 54.5553 4 3 120
1912052S13056 1912 9 SI MM NOT_NAMED 1912-02-26 18:00:00 TS -21.4714 54.7138 main 66 47 _________OP___ -1 -21.5000 54.7000 TC 65 -21.4427 54.7275 4 3 106
1912052S13056 1912 9 SI MM NOT_NAMED 1912-02-26 21:00:00 TS -21.4972 54.9005 main 47 30 _________PP___ -1 -21.5176 54.8900 TC 65 -21.4768 54.9110 4 4 95
1912052S13056 1912 9 SI MM NOT_NAMED 1912-02-27 00:00:00 TS -21.5000 55.1000 main 30 _________OO___ -1 -21.5000 55.1000 TC 65 -21.5000 55.1000 4 4 91

IBTrACS Databaseについて

本データベースは、米国NOAAが公開する1842年以降の世界の熱帯低気圧のベストトラックデータアーカイブInternational Best Track Archive for Climate Stewardship (IBTrACS)を、ウェブで閲覧しやすい形式に変換したものです。

最終更新日:2021-11-26